createdAt,value
2023-02-24T00:02:05.970Z,25.30
2023-02-24T00:04:40.022Z,23.13
2023-02-24T00:07:12.642Z,22.90
2023-02-24T00:09:40.273Z,24.13
2023-02-24T00:12:14.018Z,22.20
2023-02-24T00:14:45.220Z,22.87
2023-02-24T00:17:16.419Z,23.30
2023-02-24T00:19:46.220Z,23.13
2023-02-24T00:22:13.115Z,23.50
2023-02-24T00:24:40.061Z,20.73
2023-02-24T00:27:07.923Z,23.30
2023-02-24T00:29:40.126Z,23.20
2023-02-24T00:32:12.412Z,22.93
2023-02-24T00:34:39.687Z,23.13
2023-02-24T00:37:07.399Z,22.60
2023-02-24T00:39:41.147Z,23.97
2023-02-24T00:42:08.563Z,23.13
2023-02-24T00:44:45.066Z,23.97
2023-02-24T00:47:16.271Z,23.87
2023-02-24T00:49:43.872Z,22.80
2023-02-24T00:52:20.358Z,23.20
2023-02-24T00:54:50.023Z,22.13
2023-02-24T00:57:18.378Z,22.27
2023-02-24T00:59:47.513Z,24.73
2023-02-24T01:02:16.003Z,24.27
2023-02-24T01:04:44.226Z,21.90
2023-02-24T01:07:12.936Z,21.17
2023-02-24T01:09:41.710Z,23.30
2023-02-24T01:12:32.089Z,21.07
2023-02-24T01:14:59.352Z,20.67
2023-02-24T01:17:26.306Z,20.77
2023-02-24T01:20:00.275Z,22.67
2023-02-24T01:22:27.325Z,20.17
2023-02-24T01:24:54.202Z,23.30
2023-02-24T01:27:21.158Z,21.83
2023-02-24T01:29:49.022Z,23.70
2023-02-24T01:32:21.905Z,24.00
2023-02-24T01:34:52.434Z,23.80
2023-02-24T01:37:20.566Z,22.80
2023-02-24T01:39:48.413Z,21.50
2023-02-24T01:42:20.768Z,22.10
2023-02-24T01:44:47.852Z,22.43
2023-02-24T01:47:23.257Z,23.03
2023-02-24T01:49:54.698Z,21.40
2023-02-24T01:52:36.082Z,22.20
2023-02-24T01:55:40.843Z,24.30
2023-02-24T01:58:23.907Z,23.70
2023-02-24T02:00:51.940Z,22.57
2023-02-24T02:03:42.116Z,21.80
2023-02-24T02:06:13.437Z,20.90
2023-02-24T02:08:44.115Z,22.33
2023-02-24T02:11:23.398Z,22.10
2023-02-24T02:13:53.644Z,21.33
2023-02-24T02:17:14.232Z,24.00
2023-02-24T02:20:28.453Z,21.97
2023-02-24T02:23:44.245Z,20.73
2023-02-24T02:27:04.847Z,20.10
2023-02-24T02:29:56.231Z,19.90
2023-02-24T02:32:51.900Z,23.17
2023-02-24T02:35:32.536Z,20.97
2023-02-24T02:38:34.869Z,22.33
2023-02-24T02:41:28.648Z,21.77
2023-02-24T02:44:39.612Z,22.67
2023-02-24T02:47:46.884Z,22.57
2023-02-24T02:50:26.844Z,21.47
2023-02-24T02:53:06.599Z,22.13
2023-02-24T02:55:56.587Z,23.47
2023-02-24T02:58:34.017Z,21.93
2023-02-24T03:01:07.127Z,24.00
2023-02-24T03:03:46.540Z,22.77
2023-02-24T03:06:27.927Z,21.23
2023-02-24T03:09:15.794Z,21.20
2023-02-24T03:12:15.830Z,21.93
2023-02-24T03:14:58.911Z,22.13
2023-02-24T03:17:35.058Z,22.77
2023-02-24T03:20:24.806Z,21.73
2023-02-24T03:23:33.258Z,20.33
2023-02-24T03:26:23.299Z,20.97
2023-02-24T03:29:12.743Z,22.80
2023-02-24T03:31:59.407Z,21.13
2023-02-24T03:35:01.688Z,21.10
2023-02-24T03:37:31.274Z,19.83
2023-02-24T03:40:11.482Z,19.80
2023-02-24T03:42:47.088Z,19.23
2023-02-24T03:45:16.284Z,19.33
2023-02-24T03:47:45.526Z,20.37
2023-02-24T03:50:22.042Z,22.07
2023-02-24T03:54:08.898Z,22.47
2023-02-24T03:57:02.249Z,21.10
2023-02-24T03:59:57.297Z,19.53
2023-02-24T04:02:33.449Z,21.70
2023-02-24T04:05:24.831Z,21.37
2023-02-24T04:08:07.460Z,22.37
2023-02-24T04:11:13.058Z,23.90
2023-02-24T04:13:54.907Z,22.93
2023-02-24T04:16:36.355Z,23.33
2023-02-24T04:19:14.637Z,23.07
2023-02-24T04:21:49.761Z,23.17
2023-02-24T04:24:23.756Z,23.73
2023-02-24T04:26:58.743Z,22.50
2023-02-24T04:29:35.570Z,23.80
2023-02-24T04:32:11.697Z,26.60
2023-02-24T04:34:41.399Z,24.77
2023-02-24T04:37:09.180Z,27.10
2023-02-24T04:39:38.368Z,30.27
2023-02-24T04:42:08.242Z,27.00
2023-02-24T04:44:35.323Z,26.47
2023-02-24T04:47:03.720Z,25.40
2023-02-24T04:49:30.655Z,24.43
2023-02-24T04:51:57.668Z,25.03
2023-02-24T04:54:24.667Z,26.00
2023-02-24T04:56:52.591Z,25.47
2023-02-24T04:59:22.490Z,27.23
2023-02-24T05:01:52.865Z,26.03
2023-02-24T05:04:19.974Z,27.90
2023-02-24T05:06:47.263Z,27.17
2023-02-24T05:09:17.927Z,26.07
2023-02-24T05:11:50.273Z,27.50
2023-02-24T05:14:24.894Z,27.57
2023-02-24T05:16:52.029Z,32.70
2023-02-24T05:19:39.275Z,28.80
2023-02-24T05:22:11.539Z,27.87
2023-02-24T05:24:38.545Z,25.43
2023-02-24T05:27:05.445Z,26.40
2023-02-24T05:29:35.419Z,25.50
2023-02-24T05:32:04.605Z,25.97
2023-02-24T05:34:33.499Z,26.67
2023-02-24T05:37:10.050Z,26.73
2023-02-24T05:39:37.853Z,29.00
2023-02-24T05:42:06.747Z,26.93
2023-02-24T05:44:35.491Z,26.57
2023-02-24T05:47:05.217Z,27.40
2023-02-24T05:49:35.204Z,25.60
2023-02-24T05:52:09.893Z,26.00
2023-02-24T05:54:45.189Z,27.40
2023-02-24T05:57:19.497Z,27.60
2023-02-24T05:59:50.315Z,27.10
2023-02-24T06:02:36.988Z,24.47
2023-02-24T06:05:04.635Z,26.10
2023-02-24T06:07:35.442Z,28.60
2023-02-24T06:10:04.742Z,26.07
2023-02-24T06:12:35.240Z,26.90
2023-02-24T06:15:07.289Z,27.97
2023-02-24T06:17:34.491Z,27.90
2023-02-24T06:20:01.626Z,26.70
2023-02-24T06:22:28.650Z,27.03
2023-02-24T06:24:56.586Z,29.20
2023-02-24T06:27:24.586Z,29.40
2023-02-24T06:29:54.913Z,29.43
2023-02-24T06:32:26.213Z,27.23
2023-02-24T06:34:54.695Z,26.90
2023-02-24T06:37:22.881Z,30.60
2023-02-24T06:39:50.112Z,27.90
2023-02-24T06:42:16.992Z,27.90
2023-02-24T06:44:44.093Z,29.77
2023-02-24T06:47:16.200Z,28.07
2023-02-24T06:49:43.296Z,26.57
2023-02-24T06:52:11.498Z,30.93
2023-02-24T06:54:38.405Z,29.77
2023-02-24T06:57:06.295Z,27.37
2023-02-24T06:59:34.156Z,28.37
2023-02-24T07:02:03.247Z,30.23
2023-02-24T07:04:36.092Z,29.40
2023-02-24T07:07:03.537Z,30.93
2023-02-24T07:09:31.874Z,32.30
2023-02-24T07:12:02.357Z,27.80
2023-02-24T07:14:33.380Z,28.33
2023-02-24T07:17:00.688Z,27.77
2023-02-24T07:19:32.391Z,30.77
2023-02-24T07:22:03.510Z,25.83
2023-02-24T07:24:40.427Z,28.30
2023-02-24T07:27:21.683Z,26.27
2023-02-24T07:29:53.242Z,29.33
2023-02-24T07:32:25.430Z,29.40
2023-02-24T07:34:52.826Z,28.57
2023-02-24T07:37:20.918Z,29.57
2023-02-24T07:39:47.823Z,28.60
2023-02-24T07:42:14.880Z,28.30
2023-02-24T07:44:44.339Z,27.17
2023-02-24T07:47:11.329Z,27.83
2023-02-24T07:49:40.802Z,30.43
2023-02-24T07:52:08.912Z,30.50
2023-02-24T07:54:39.043Z,29.67
2023-02-24T07:57:06.430Z,29.07
2023-02-24T07:59:37.909Z,30.17
2023-02-24T08:02:07.515Z,28.80
2023-02-24T08:04:36.196Z,28.07
2023-02-24T08:07:04.258Z,29.27
2023-02-24T08:09:47.152Z,27.17
2023-02-24T08:12:22.767Z,27.67
2023-02-24T08:15:00.023Z,27.40
2023-02-24T08:17:27.725Z,28.97
2023-02-24T08:20:28.590Z,29.57
2023-02-24T08:22:56.598Z,26.67
2023-02-24T08:25:35.583Z,27.77
2023-02-24T08:28:11.177Z,31.63
2023-02-24T08:30:47.759Z,28.03
2023-02-24T08:33:22.270Z,30.03
2023-02-24T08:36:01.306Z,27.53
2023-02-24T08:38:41.984Z,32.17
2023-02-24T08:41:21.105Z,27.03
2023-02-24T08:43:49.619Z,29.40
2023-02-24T08:46:26.015Z,28.97
2023-02-24T08:49:02.422Z,28.27
2023-02-24T08:51:43.573Z,27.60
2023-02-24T08:54:26.929Z,29.03
2023-02-24T08:56:56.614Z,28.60
2023-02-24T08:59:37.461Z,28.20
2023-02-24T09:03:51.293Z,26.40
2023-02-24T09:06:44.889Z,25.77
2023-02-24T09:09:23.034Z,26.87
2023-02-24T09:11:59.317Z,28.37
2023-02-24T09:14:38.939Z,28.67
2023-02-24T09:17:11.381Z,26.17
2023-02-24T09:19:50.740Z,27.70
2023-02-24T09:22:32.514Z,26.07
2023-02-24T09:25:17.864Z,24.40
2023-02-24T09:28:09.894Z,22.03
2023-02-24T09:30:55.921Z,23.63
2023-02-24T09:33:39.352Z,21.40
2023-02-24T09:36:19.878Z,23.10
2023-02-24T09:39:01.214Z,22.00
2023-02-24T09:42:03.792Z,23.10
2023-02-24T09:44:44.298Z,22.67
2023-02-24T09:47:56.332Z,20.87
2023-02-24T09:50:51.223Z,22.63
2023-02-24T09:53:19.580Z,20.63
2023-02-24T09:56:04.963Z,20.60
2023-02-24T09:59:10.030Z,20.30
2023-02-24T10:02:02.857Z,21.33
2023-02-24T10:04:55.090Z,20.57
2023-02-24T10:07:38.376Z,20.47
2023-02-24T10:10:36.075Z,20.90
2023-02-24T10:13:30.793Z,22.97
2023-02-24T10:16:10.169Z,26.67
2023-02-24T10:19:11.663Z,27.00
2023-02-24T10:22:02.384Z,24.60
2023-02-24T10:24:41.131Z,43.50
2023-02-24T10:27:57.797Z,39.47
2023-02-24T10:31:25.006Z,34.37
2023-02-24T10:34:26.273Z,20.77
2023-02-24T10:36:57.424Z,23.27
2023-02-24T10:39:27.100Z,22.10
2023-02-24T10:42:19.514Z,20.93
2023-02-24T10:45:01.734Z,20.40
2023-02-24T10:47:31.395Z,20.10
2023-02-24T10:50:03.374Z,20.20
2023-02-24T10:52:53.162Z,20.90
2023-02-24T10:55:39.337Z,17.93
2023-02-24T10:58:07.677Z,18.10
2023-02-24T11:01:03.790Z,18.47
2023-02-24T11:03:41.617Z,18.03
2023-02-24T11:07:08.458Z,19.80
2023-02-24T11:09:52.055Z,18.43
2023-02-24T11:12:45.007Z,19.17
2023-02-24T11:15:38.867Z,19.30
2023-02-24T11:18:08.588Z,18.70
2023-02-24T11:20:49.273Z,18.17
2023-02-24T11:23:31.887Z,17.60
2023-02-24T11:26:18.504Z,18.43
2023-02-24T11:29:17.920Z,20.03
2023-02-24T11:32:14.165Z,18.70
2023-02-24T11:34:55.669Z,20.10
2023-02-24T11:37:44.838Z,19.60
2023-02-24T11:40:26.454Z,20.40
2023-02-24T11:43:13.959Z,19.80
2023-02-24T11:45:50.719Z,20.60
2023-02-24T11:48:27.340Z,19.37
2023-02-24T11:51:10.321Z,22.27
2023-02-24T11:53:55.259Z,23.60
2023-02-24T11:56:48.889Z,20.60
2023-02-24T11:59:45.191Z,20.03
2023-02-24T12:02:57.753Z,25.00
2023-02-24T12:05:39.011Z,20.53
2023-02-24T12:08:42.044Z,20.63
2023-02-24T12:12:08.164Z,20.33
2023-02-24T12:14:57.993Z,19.80
2023-02-24T12:17:57.798Z,21.40
2023-02-24T12:20:41.397Z,20.80
2023-02-24T12:23:23.106Z,20.70
2023-02-24T12:26:48.350Z,18.90
2023-02-24T12:29:50.558Z,21.40
2023-02-24T12:33:31.795Z,18.50
2023-02-24T12:36:43.565Z,20.50
2023-02-24T12:39:29.730Z,21.03
2023-02-24T12:42:29.086Z,23.60
2023-02-24T12:45:35.605Z,20.27
2023-02-24T12:48:25.609Z,21.17
2023-02-24T12:51:17.039Z,19.87
2023-02-24T12:54:35.815Z,20.00
2023-02-24T12:58:07.982Z,20.40
2023-02-24T13:01:16.656Z,20.43
2023-02-24T13:04:43.713Z,18.97
2023-02-24T13:07:39.684Z,20.50
2023-02-24T13:10:42.126Z,22.23
2023-02-24T13:13:26.910Z,16.97
2023-02-24T13:16:02.498Z,16.47
2023-02-24T13:18:34.611Z,18.33
2023-02-24T13:21:22.417Z,16.70
2023-02-24T13:24:02.674Z,15.73
2023-02-24T13:26:32.719Z,12.70
2023-02-24T13:29:14.167Z,15.00
2023-02-24T13:31:52.540Z,13.50
2023-02-24T13:34:44.597Z,15.83
2023-02-24T13:37:11.794Z,13.70
2023-02-24T13:39:41.452Z,14.90
2023-02-24T13:42:25.104Z,13.90
2023-02-24T13:45:19.681Z,14.33
2023-02-24T13:48:30.721Z,12.97
2023-02-24T13:51:24.956Z,13.27
2023-02-24T13:54:39.015Z,13.37
2023-02-24T13:58:04.609Z,14.83
2023-02-24T14:01:25.880Z,12.07
2023-02-24T14:04:16.808Z,12.77
2023-02-24T14:06:56.622Z,14.63
2023-02-24T14:09:33.633Z,14.33
2023-02-24T14:12:20.365Z,14.80
2023-02-24T14:14:49.689Z,14.30
2023-02-24T14:17:35.770Z,14.70
2023-02-24T14:20:24.439Z,15.23
2023-02-24T14:22:58.557Z,12.23
2023-02-24T14:25:34.757Z,11.93
2023-02-24T14:28:02.202Z,11.77
2023-02-24T14:30:37.954Z,13.07
2023-02-24T14:33:19.228Z,11.57
2023-02-24T14:35:47.702Z,11.20
2023-02-24T14:38:39.360Z,12.00
2023-02-24T14:41:20.919Z,9.73
2023-02-24T14:43:48.110Z,9.50
2023-02-24T14:46:16.319Z,10.03
2023-02-24T14:48:45.349Z,10.93
2023-02-24T14:51:35.391Z,12.10
2023-02-24T14:54:16.723Z,11.43
2023-02-24T14:56:43.822Z,9.83
2023-02-24T14:59:35.120Z,10.57
2023-02-24T15:02:14.885Z,9.97
2023-02-24T15:04:44.438Z,12.80
2023-02-24T15:07:23.832Z,22.97
2023-02-24T15:09:53.649Z,11.60
2023-02-24T15:12:34.895Z,12.57
2023-02-24T15:15:08.873Z,11.40
2023-02-24T15:17:41.028Z,11.03
2023-02-24T15:20:35.442Z,11.03
2023-02-24T15:23:03.257Z,10.87
2023-02-24T15:25:46.161Z,9.97
2023-02-24T15:28:36.392Z,10.67
2023-02-24T15:31:18.408Z,8.57
2023-02-24T15:34:01.295Z,8.27
2023-02-24T15:36:35.085Z,9.20
2023-02-24T15:39:11.927Z,8.63
2023-02-24T15:41:48.413Z,9.23
2023-02-24T15:44:34.967Z,9.53
2023-02-24T15:47:26.245Z,8.83
2023-02-24T15:49:53.234Z,7.70
2023-02-24T15:52:28.689Z,8.63
2023-02-24T15:54:59.304Z,8.73
2023-02-24T15:57:29.845Z,8.27
2023-02-24T15:59:56.829Z,9.57
2023-02-24T16:02:25.587Z,9.10
2023-02-24T16:04:53.012Z,8.50
2023-02-24T16:07:30.436Z,8.90
2023-02-24T16:10:01.001Z,7.90
2023-02-24T16:12:39.061Z,10.60
2023-02-24T16:15:20.024Z,10.60
2023-02-24T16:17:47.263Z,9.53
2023-02-24T16:20:27.316Z,8.70
2023-02-24T16:23:05.400Z,8.60
2023-02-24T16:25:44.993Z,8.77
2023-02-24T16:28:22.361Z,9.17
2023-02-24T16:30:53.247Z,9.00
2023-02-24T16:33:23.293Z,9.50
2023-02-24T16:35:55.165Z,8.47
2023-02-24T16:38:26.415Z,10.63
2023-02-24T16:40:54.548Z,11.40
2023-02-24T16:43:21.676Z,10.83
2023-02-24T16:45:48.769Z,10.40
2023-02-24T16:48:26.154Z,10.87
2023-02-24T16:50:54.060Z,11.73
2023-02-24T16:53:24.445Z,11.30
2023-02-24T16:55:52.071Z,11.80
2023-02-24T16:58:19.531Z,11.30
2023-02-24T17:00:52.166Z,11.37
2023-02-24T17:03:28.348Z,12.30
2023-02-24T17:05:55.641Z,12.50
2023-02-24T17:08:23.048Z,12.80
2023-02-24T17:10:51.945Z,12.23
2023-02-24T17:13:22.164Z,12.13
2023-02-24T17:15:57.001Z,10.27
2023-02-24T17:18:26.535Z,11.17
2023-02-24T17:20:53.797Z,9.70
2023-02-24T17:23:21.629Z,12.80
2023-02-24T17:25:55.858Z,11.67
2023-02-24T17:28:23.419Z,18.37
2023-02-24T17:30:50.461Z,13.20
2023-02-24T17:33:17.626Z,11.67
2023-02-24T17:35:46.959Z,11.00
2023-02-24T17:38:21.472Z,9.73
2023-02-24T17:40:48.475Z,10.03
2023-02-24T17:43:15.694Z,11.20
2023-02-24T17:45:46.337Z,13.27
2023-02-24T17:48:15.902Z,16.50
2023-02-24T17:50:47.658Z,10.97
2023-02-24T17:53:15.650Z,9.63
2023-02-24T17:56:00.973Z,11.07
2023-02-24T17:58:28.637Z,9.43
2023-02-24T18:00:55.551Z,10.40
2023-02-24T18:03:22.550Z,10.97
2023-02-24T18:06:01.258Z,11.40
2023-02-24T18:08:28.474Z,11.57
2023-02-24T18:10:55.383Z,10.27
2023-02-24T18:13:22.764Z,10.33
2023-02-24T18:15:49.742Z,11.00
2023-02-24T18:18:17.281Z,11.10
2023-02-24T18:20:45.201Z,10.13
2023-02-24T18:23:13.672Z,11.90
2023-02-24T18:25:41.068Z,10.70
2023-02-24T18:28:08.773Z,10.17
2023-02-24T18:30:38.777Z,10.00
2023-02-24T18:33:05.992Z,9.60
2023-02-24T18:35:33.106Z,10.53
2023-02-24T18:38:00.035Z,10.97
2023-02-24T18:40:28.073Z,9.60
2023-02-24T18:42:55.748Z,10.17
2023-02-24T18:45:24.518Z,10.93
2023-02-24T18:47:52.908Z,10.77
2023-02-24T18:50:24.807Z,11.03
2023-02-24T18:52:52.287Z,11.60
2023-02-24T18:55:19.733Z,9.20
2023-02-24T18:57:48.036Z,10.20
2023-02-24T19:00:16.183Z,10.93
2023-02-24T19:02:43.286Z,9.10
2023-02-24T19:05:10.976Z,8.80
2023-02-24T19:07:38.056Z,9.03
2023-02-24T19:10:06.313Z,8.33
2023-02-24T19:12:33.274Z,8.67
2023-02-24T19:15:00.330Z,7.80
2023-02-24T19:17:27.212Z,8.77
2023-02-24T19:19:54.342Z,9.70
2023-02-24T19:22:21.248Z,7.70
2023-02-24T19:24:48.159Z,7.53
2023-02-24T19:27:15.187Z,8.53
2023-02-24T19:29:42.141Z,8.10
2023-02-24T19:32:09.195Z,7.77
2023-02-24T19:34:37.346Z,8.87
2023-02-24T19:37:04.278Z,8.77
2023-02-24T19:39:31.193Z,7.10
2023-02-24T19:41:58.161Z,8.87
2023-02-24T19:44:25.035Z,9.20
2023-02-24T19:46:51.940Z,8.93
2023-02-24T19:49:18.935Z,9.37
2023-02-24T19:51:48.127Z,8.90
2023-02-24T19:54:16.137Z,8.13
2023-02-24T19:56:43.920Z,9.10
2023-02-24T19:59:11.363Z,8.17
2023-02-24T20:01:38.478Z,8.67
2023-02-24T20:04:06.981Z,8.33
2023-02-24T20:06:41.433Z,8.27
2023-02-24T20:09:17.256Z,7.27
2023-02-24T20:11:46.132Z,7.60
2023-02-24T20:14:16.889Z,7.23
2023-02-24T20:16:45.011Z,8.37
2023-02-24T20:19:15.661Z,5.80
2023-02-24T20:21:42.856Z,7.80
2023-02-24T20:24:16.677Z,6.70
2023-02-24T20:26:49.588Z,6.83
2023-02-24T20:29:20.862Z,3.90
2023-02-24T20:31:48.880Z,4.03
2023-02-24T20:34:16.614Z,3.50
2023-02-24T20:36:43.925Z,3.00
2023-02-24T20:39:14.583Z,3.97
2023-02-24T20:41:44.274Z,4.20
2023-02-24T20:44:12.112Z,3.95
2023-02-24T20:46:39.378Z,3.10
2023-02-24T20:49:11.697Z,2.63
2023-02-24T20:51:39.897Z,3.10
2023-02-24T20:54:10.457Z,2.55
2023-02-24T20:56:41.997Z,2.72
2023-02-24T20:59:18.087Z,2.50
2023-02-24T21:01:47.846Z,3.65
2023-02-24T21:04:19.655Z,2.70
2023-02-24T21:06:47.879Z,2.30
2023-02-24T21:09:16.052Z,2.97
2023-02-24T21:11:42.965Z,2.20
2023-02-24T21:14:16.754Z,2.35
2023-02-24T21:16:46.017Z,2.75
2023-02-24T21:19:13.220Z,2.00
2023-02-24T21:21:40.127Z,4.05
2023-02-24T21:24:07.888Z,4.10
2023-02-24T21:26:34.770Z,2.58
2023-02-24T21:29:01.674Z,2.15
2023-02-24T21:31:29.011Z,2.22
2023-02-24T21:33:56.748Z,1.70
2023-02-24T21:36:25.856Z,1.88
2023-02-24T21:38:54.859Z,2.22
2023-02-24T21:41:23.514Z,2.40
2023-02-24T21:43:55.549Z,1.55
2023-02-24T21:46:27.788Z,1.80
2023-02-24T21:48:58.915Z,1.60
2023-02-24T21:51:29.032Z,1.60
2023-02-24T21:53:57.424Z,1.70
2023-02-24T21:56:29.242Z,1.85
2023-02-24T21:59:04.684Z,1.42
2023-02-24T22:01:42.331Z,1.50
2023-02-24T22:04:15.911Z,1.58
2023-02-24T22:06:44.622Z,1.65
2023-02-24T22:09:19.116Z,1.85
2023-02-24T22:11:48.657Z,1.80
2023-02-24T22:14:16.542Z,1.65
2023-02-24T22:16:44.755Z,2.50
2023-02-24T22:19:12.574Z,2.00
2023-02-24T22:21:42.180Z,2.15
2023-02-24T22:24:15.951Z,2.83
2023-02-24T22:26:44.609Z,2.08
2023-02-24T22:29:11.912Z,3.15
2023-02-24T22:31:39.796Z,1.90
2023-02-24T22:34:08.552Z,2.60
2023-02-24T22:36:37.370Z,2.30
2023-02-24T22:39:08.350Z,1.70
2023-02-24T22:41:37.206Z,2.25
2023-02-24T22:44:05.930Z,2.10
2023-02-24T22:46:38.228Z,2.25
2023-02-24T22:49:10.877Z,1.80
2023-02-24T22:51:43.824Z,2.15
2023-02-24T22:54:25.416Z,1.60
2023-02-24T22:57:00.219Z,1.40
2023-02-24T22:59:27.731Z,1.70
2023-02-24T23:01:54.929Z,2.30
2023-02-24T23:04:25.129Z,1.75
2023-02-24T23:06:55.220Z,2.05
2023-02-24T23:09:22.720Z,1.88
2023-02-24T23:11:56.796Z,2.70
2023-02-24T23:14:33.439Z,2.30
2023-02-24T23:17:00.805Z,2.72
2023-02-24T23:19:28.279Z,3.28
2023-02-24T23:21:58.063Z,3.15
2023-02-24T23:24:25.783Z,3.05
2023-02-24T23:26:59.619Z,2.95
2023-02-24T23:29:28.112Z,2.95
2023-02-24T23:31:57.298Z,2.67
2023-02-24T23:34:33.060Z,3.33
2023-02-24T23:37:00.857Z,3.53
2023-02-24T23:39:30.516Z,3.47
2023-02-24T23:42:00.459Z,3.70
2023-02-24T23:44:36.344Z,3.72
2023-02-24T23:47:05.122Z,4.10
2023-02-24T23:49:47.620Z,4.57
2023-02-24T23:52:19.335Z,4.15
2023-02-24T23:54:50.856Z,3.97
2023-02-24T23:57:25.278Z,5.80
2023-02-24T23:59:53.016Z,5.82
